CheckWX is a tool to help pilots better visualize weather data.  It is not intended as a substitute for an official pre-flight weather briefing.

13:23:08 UTC

SLLP TAF
El Alto International Airport
La Paz / El Alto, Bolivia
TAF SLLP 161050Z 1612/1712 30010KT 9999 SCT015 BKN070 TX12/1620Z TN01/1710Z TEMPO 1618/1622 8000 VCSH FEW020CB BECMG 1623/1701 07005KT PROB40 TEMPO 1705/1709 5000 RA

Jun-16@
12:00 UTC

Jun-16 @ 12:00 UTC

Jun-16@
23:00 UTC

Jun-16 @ 23:00 UTC

TAF SLLP 161050Z 1612/1712 30010KT 9999 SCT015 BKN070 TX12/1620Z TN01/1710Z
Wind
  • 300° at 10 KTS
Cloud Levels
  • Scattered at 1,500' AGL
  • Broken at 7,000' AGL

Jun-16@
18:00 UTC

Jun-16 @ 18:00 UTC

Jun-16@
22:00 UTC

Jun-16 @ 22:00 UTC

TEMPO 1618/1622 8000 VCSH FEW020CB

Temporary

Temporary Changes expected for less than half the time period

Cloud Levels
  • Few at 2,000' AGL

Jun-16@
23:00 UTC

Jun-16 @ 23:00 UTC

Jun-17@
12:00 UTC

Jun-17 @ 12:00 UTC

BECMG 1623/1701 07005KT

Becoming

Becoming Conditions expected by Mon, Jun 17, 2019 @ 01:00 UTC

Wind
  • 070° at 5 KTS
Cloud Levels
  • Scattered at 1,500' AGL
  • Broken at 7,000' AGL

Jun-17@
05:00 UTC

Jun-17 @ 05:00 UTC

Jun-17@
09:00 UTC

Jun-17 @ 09:00 UTC

PROB40 TEMPO 1705/1709 5000 RA

Temporary - 40% Likelihood

Temporary - 40% Likelihood during this time.

Conditions
Rain